sensor_id;sensor_type;location;lat;lon;timestamp;P1;durP1;ratioP1;P2;durP2;ratioP2
68507;SDS011;55510;49.560;19.090;2023-04-24T00:02:17;24.07;;;10.93;;
68507;SDS011;55510;49.560;19.090;2023-04-24T00:05:19;20.88;;;9.70;;
68507;SDS011;55510;49.560;19.090;2023-04-24T00:08:20;21.90;;;9.68;;
68507;SDS011;55510;49.560;19.090;2023-04-24T00:11:20;24.70;;;12.00;;
68507;SDS011;55510;49.560;19.090;2023-04-24T00:14:21;21.42;;;9.73;;
68507;SDS011;55510;49.560;19.090;2023-04-24T00:17:22;21.87;;;9.40;;
68507;SDS011;55510;49.560;19.090;2023-04-24T00:20:22;18.20;;;8.65;;
68507;SDS011;55510;49.560;19.090;2023-04-24T00:23:23;20.70;;;10.30;;
68507;SDS011;55510;49.560;19.090;2023-04-24T00:26:24;19.73;;;9.20;;
68507;SDS011;55510;49.560;19.090;2023-04-24T00:29:25;18.83;;;8.85;;
68507;SDS011;55510;49.560;19.090;2023-04-24T00:32:25;23.23;;;9.77;;
68507;SDS011;55510;49.560;19.090;2023-04-24T00:35:26;21.58;;;10.18;;
68507;SDS011;55510;49.560;19.090;2023-04-24T00:38:26;18.13;;;9.13;;
68507;SDS011;55510;49.560;19.090;2023-04-24T00:41:27;22.02;;;11.25;;
68507;SDS011;55510;49.560;19.090;2023-04-24T00:44:28;21.70;;;11.00;;
68507;SDS011;55510;49.560;19.090;2023-04-24T00:47:29;27.58;;;13.05;;
68507;SDS011;55510;49.560;19.090;2023-04-24T00:50:30;24.77;;;11.40;;
68507;SDS011;55510;49.560;19.090;2023-04-24T00:53:31;21.52;;;11.55;;
68507;SDS011;55510;49.560;19.090;2023-04-24T00:56:32;24.00;;;10.63;;
68507;SDS011;55510;49.560;19.090;2023-04-24T00:59:33;19.40;;;9.50;;
68507;SDS011;55510;49.560;19.090;2023-04-24T01:02:34;22.23;;;10.60;;
68507;SDS011;55510;49.560;19.090;2023-04-24T01:05:35;19.05;;;9.20;;
68507;SDS011;55510;49.560;19.090;2023-04-24T01:08:36;21.23;;;9.77;;
68507;SDS011;55510;49.560;19.090;2023-04-24T01:11:38;16.23;;;8.30;;
68507;SDS011;55510;49.560;19.090;2023-04-24T01:14:41;19.40;;;8.65;;
68507;SDS011;55510;49.560;19.090;2023-04-24T01:17:43;16.52;;;8.32;;
68507;SDS011;55510;49.560;19.090;2023-04-24T01:20:43;21.67;;;11.57;;
68507;SDS011;55510;49.560;19.090;2023-04-24T01:23:47;23.67;;;10.52;;
68507;SDS011;55510;49.560;19.090;2023-04-24T01:26:47;21.52;;;11.10;;
68507;SDS011;55510;49.560;19.090;2023-04-24T01:29:48;19.23;;;9.23;;
68507;SDS011;55510;49.560;19.090;2023-04-24T01:32:51;22.40;;;10.60;;
68507;SDS011;55510;49.560;19.090;2023-04-24T01:35:52;20.60;;;9.85;;
68507;SDS011;55510;49.560;19.090;2023-04-24T01:38:54;19.42;;;9.77;;
68507;SDS011;55510;49.560;19.090;2023-04-24T01:41:55;21.63;;;9.75;;
68507;SDS011;55510;49.560;19.090;2023-04-24T01:44:56;19.77;;;9.40;;
68507;SDS011;55510;49.560;19.090;2023-04-24T01:47:57;21.65;;;9.40;;
68507;SDS011;55510;49.560;19.090;2023-04-24T01:50:58;24.25;;;10.82;;
68507;SDS011;55510;49.560;19.090;2023-04-24T01:54:00;25.83;;;10.40;;
68507;SDS011;55510;49.560;19.090;2023-04-24T01:57:00;18.33;;;9.43;;
68507;SDS011;55510;49.560;19.090;2023-04-24T02:00:03;18.63;;;10.40;;
68507;SDS011;55510;49.560;19.090;2023-04-24T02:03:05;17.20;;;8.93;;
68507;SDS011;55510;49.560;19.090;2023-04-24T02:06:06;17.03;;;8.60;;
68507;SDS011;55510;49.560;19.090;2023-04-24T02:09:07;20.02;;;10.73;;
68507;SDS011;55510;49.560;19.090;2023-04-24T02:12:09;18.27;;;9.87;;
68507;SDS011;55510;49.560;19.090;2023-04-24T02:15:09;19.30;;;9.35;;
68507;SDS011;55510;49.560;19.090;2023-04-24T02:18:11;16.70;;;8.38;;
68507;SDS011;55510;49.560;19.090;2023-04-24T02:21:12;18.55;;;8.10;;
68507;SDS011;55510;49.560;19.090;2023-04-24T02:24:13;19.50;;;7.67;;
68507;SDS011;55510;49.560;19.090;2023-04-24T02:27:14;19.48;;;8.40;;
68507;SDS011;55510;49.560;19.090;2023-04-24T02:30:15;18.45;;;10.25;;
68507;SDS011;55510;49.560;19.090;2023-04-24T02:33:16;18.50;;;9.70;;
68507;SDS011;55510;49.560;19.090;2023-04-24T02:36:16;23.63;;;10.15;;
68507;SDS011;55510;49.560;19.090;2023-04-24T02:39:17;19.07;;;8.90;;
68507;SDS011;55510;49.560;19.090;2023-04-24T02:42:19;15.23;;;7.82;;
68507;SDS011;55510;49.560;19.090;2023-04-24T02:45:19;17.70;;;8.53;;
68507;SDS011;55510;49.560;19.090;2023-04-24T02:48:20;19.50;;;8.95;;
68507;SDS011;55510;49.560;19.090;2023-04-24T02:51:21;17.57;;;8.33;;
68507;SDS011;55510;49.560;19.090;2023-04-24T02:54:21;15.10;;;7.95;;
68507;SDS011;55510;49.560;19.090;2023-04-24T02:57:22;14.00;;;7.23;;
68507;SDS011;55510;49.560;19.090;2023-04-24T03:00:23;18.90;;;9.03;;
68507;SDS011;55510;49.560;19.090;2023-04-24T03:03:23;15.95;;;7.82;;
68507;SDS011;55510;49.560;19.090;2023-04-24T03:06:25;15.73;;;7.27;;
68507;SDS011;55510;49.560;19.090;2023-04-24T03:09:27;13.03;;;6.53;;
68507;SDS011;55510;49.560;19.090;2023-04-24T03:12:27;9.73;;;4.72;;
68507;SDS011;55510;49.560;19.090;2023-04-24T03:15:28;13.97;;;6.07;;
68507;SDS011;55510;49.560;19.090;2023-04-24T03:18:29;14.05;;;6.03;;
68507;SDS011;55510;49.560;19.090;2023-04-24T03:21:30;15.90;;;6.50;;
68507;SDS011;55510;49.560;19.090;2023-04-24T03:24:30;17.38;;;7.68;;
68507;SDS011;55510;49.560;19.090;2023-04-24T03:27:31;15.87;;;7.87;;
68507;SDS011;55510;49.560;19.090;2023-04-24T03:30:32;13.88;;;6.00;;
68507;SDS011;55510;49.560;19.090;2023-04-24T03:33:32;11.00;;;3.80;;
68507;SDS011;55510;49.560;19.090;2023-04-24T03:36:33;11.98;;;4.88;;
68507;SDS011;55510;49.560;19.090;2023-04-24T03:39:34;8.87;;;4.20;;
68507;SDS011;55510;49.560;19.090;2023-04-24T03:42:34;8.60;;;4.00;;
68507;SDS011;55510;49.560;19.090;2023-04-24T03:45:35;9.52;;;3.47;;
68507;SDS011;55510;49.560;19.090;2023-04-24T03:48:36;6.37;;;3.20;;
68507;SDS011;55510;49.560;19.090;2023-04-24T03:51:36;6.47;;;3.38;;
68507;SDS011;55510;49.560;19.090;2023-04-24T03:54:37;6.13;;;2.20;;
68507;SDS011;55510;49.560;19.090;2023-04-24T03:57:38;6.33;;;2.83;;
68507;SDS011;55510;49.560;19.090;2023-04-24T04:00:40;4.95;;;2.80;;
68507;SDS011;55510;49.560;19.090;2023-04-24T04:03:41;6.30;;;2.57;;
68507;SDS011;55510;49.560;19.090;2023-04-24T04:06:42;6.13;;;3.20;;
68507;SDS011;55510;49.560;19.090;2023-04-24T04:09:44;6.43;;;3.05;;
68507;SDS011;55510;49.560;19.090;2023-04-24T04:12:44;7.95;;;3.47;;
68507;SDS011;55510;49.560;19.090;2023-04-24T04:15:46;8.47;;;3.10;;
68507;SDS011;55510;49.560;19.090;2023-04-24T04:18:47;7.07;;;3.08;;
68507;SDS011;55510;49.560;19.090;2023-04-24T04:21:47;8.47;;;3.03;;
68507;SDS011;55510;49.560;19.090;2023-04-24T04:24:53;5.80;;;2.95;;
68507;SDS011;55510;49.560;19.090;2023-04-24T04:27:53;6.27;;;2.93;;
68507;SDS011;55510;49.560;19.090;2023-04-24T04:30:54;5.72;;;2.90;;
68507;SDS011;55510;49.560;19.090;2023-04-24T04:33:55;5.23;;;2.70;;
68507;SDS011;55510;49.560;19.090;2023-04-24T04:36:56;6.20;;;3.40;;
68507;SDS011;55510;49.560;19.090;2023-04-24T04:39:59;6.60;;;3.53;;
68507;SDS011;55510;49.560;19.090;2023-04-24T04:43:00;6.63;;;3.30;;
68507;SDS011;55510;49.560;19.090;2023-04-24T04:46:01;6.57;;;2.80;;
68507;SDS011;55510;49.560;19.090;2023-04-24T04:49:04;7.18;;;3.20;;
68507;SDS011;55510;49.560;19.090;2023-04-24T04:52:04;6.43;;;3.20;;
68507;SDS011;55510;49.560;19.090;2023-04-24T04:55:05;10.68;;;3.65;;
68507;SDS011;55510;49.560;19.090;2023-04-24T04:58:06;9.00;;;3.20;;
68507;SDS011;55510;49.560;19.090;2023-04-24T05:01:07;6.18;;;3.20;;
68507;SDS011;55510;49.560;19.090;2023-04-24T05:04:08;6.53;;;2.80;;
68507;SDS011;55510;49.560;19.090;2023-04-24T05:07:08;6.03;;;3.20;;
68507;SDS011;55510;49.560;19.090;2023-04-24T05:10:09;7.32;;;3.65;;
68507;SDS011;55510;49.560;19.090;2023-04-24T05:13:10;6.90;;;3.20;;
68507;SDS011;55510;49.560;19.090;2023-04-24T05:16:11;8.68;;;3.80;;
68507;SDS011;55510;49.560;19.090;2023-04-24T05:19:12;8.60;;;3.57;;
68507;SDS011;55510;49.560;19.090;2023-04-24T05:22:14;8.63;;;3.03;;
68507;SDS011;55510;49.560;19.090;2023-04-24T05:25:15;7.38;;;3.67;;
68507;SDS011;55510;49.560;19.090;2023-04-24T05:28:15;6.97;;;3.40;;
68507;SDS011;55510;49.560;19.090;2023-04-24T05:31:16;5.75;;;2.80;;
68507;SDS011;55510;49.560;19.090;2023-04-24T05:34:18;5.40;;;2.73;;
68507;SDS011;55510;49.560;19.090;2023-04-24T05:37:18;9.27;;;3.43;;
68507;SDS011;55510;49.560;19.090;2023-04-24T05:40:19;5.73;;;3.03;;
68507;SDS011;55510;49.560;19.090;2023-04-24T05:43:20;8.07;;;3.00;;
68507;SDS011;55510;49.560;19.090;2023-04-24T05:46:21;6.75;;;2.70;;
68507;SDS011;55510;49.560;19.090;2023-04-24T05:49:21;6.37;;;2.63;;
68507;SDS011;55510;49.560;19.090;2023-04-24T05:52:22;7.22;;;2.80;;
68507;SDS011;55510;49.560;19.090;2023-04-24T05:55:24;8.17;;;3.20;;
68507;SDS011;55510;49.560;19.090;2023-04-24T05:58:25;6.15;;;3.65;;
68507;SDS011;55510;49.560;19.090;2023-04-24T06:01:26;5.10;;;3.17;;
68507;SDS011;55510;49.560;19.090;2023-04-24T06:04:27;7.23;;;3.60;;
68507;SDS011;55510;49.560;19.090;2023-04-24T06:07:27;6.85;;;3.70;;
68507;SDS011;55510;49.560;19.090;2023-04-24T06:10:28;7.27;;;3.37;;
68507;SDS011;55510;49.560;19.090;2023-04-24T06:13:29;5.50;;;3.53;;
68507;SDS011;55510;49.560;19.090;2023-04-24T06:16:30;6.60;;;3.93;;
68507;SDS011;55510;49.560;19.090;2023-04-24T06:19:31;6.25;;;3.50;;
68507;SDS011;55510;49.560;19.090;2023-04-24T06:22:32;8.33;;;4.17;;
68507;SDS011;55510;49.560;19.090;2023-04-24T06:25:33;7.55;;;4.07;;
68507;SDS011;55510;49.560;19.090;2023-04-24T06:28:33;7.80;;;4.00;;
68507;SDS011;55510;49.560;19.090;2023-04-24T06:31:35;7.87;;;3.50;;
68507;SDS011;55510;49.560;19.090;2023-04-24T06:34:37;5.55;;;3.60;;
68507;SDS011;55510;49.560;19.090;2023-04-24T06:37:41;8.75;;;3.88;;
68507;SDS011;55510;49.560;19.090;2023-04-24T06:40:42;6.80;;;4.23;;
68507;SDS011;55510;49.560;19.090;2023-04-24T06:43:43;6.40;;;3.80;;
68507;SDS011;55510;49.560;19.090;2023-04-24T06:46:45;7.95;;;3.72;;
68507;SDS011;55510;49.560;19.090;2023-04-24T06:49:46;11.00;;;3.97;;
68507;SDS011;55510;49.560;19.090;2023-04-24T06:52:47;8.27;;;3.70;;
68507;SDS011;55510;49.560;19.090;2023-04-24T06:55:48;7.03;;;3.67;;
68507;SDS011;55510;49.560;19.090;2023-04-24T06:58:49;8.27;;;3.67;;
68507;SDS011;55510;49.560;19.090;2023-04-24T07:01:50;5.82;;;3.60;;
68507;SDS011;55510;49.560;19.090;2023-04-24T07:04:53;8.35;;;3.38;;
68507;SDS011;55510;49.560;19.090;2023-04-24T07:07:54;7.37;;;3.87;;
68507;SDS011;55510;49.560;19.090;2023-04-24T07:10:55;6.63;;;3.90;;
68507;SDS011;55510;49.560;19.090;2023-04-24T07:13:58;7.23;;;3.80;;
68507;SDS011;55510;49.560;19.090;2023-04-24T07:16:59;8.50;;;3.67;;
68507;SDS011;55510;49.560;19.090;2023-04-24T07:20:00;7.85;;;3.25;;
68507;SDS011;55510;49.560;19.090;2023-04-24T07:23:02;6.45;;;3.15;;
68507;SDS011;55510;49.560;19.090;2023-04-24T07:26:02;13.80;;;4.63;;
68507;SDS011;55510;49.560;19.090;2023-04-24T07:29:03;7.77;;;3.47;;
68507;SDS011;55510;49.560;19.090;2023-04-24T07:32:04;6.82;;;3.17;;
68507;SDS011;55510;49.560;19.090;2023-04-24T07:35:06;8.43;;;3.50;;
68507;SDS011;55510;49.560;19.090;2023-04-24T07:38:10;6.35;;;3.65;;
68507;SDS011;55510;49.560;19.090;2023-04-24T07:41:14;8.10;;;3.80;;
68507;SDS011;55510;49.560;19.090;2023-04-24T07:44:15;7.60;;;3.35;;
68507;SDS011;55510;49.560;19.090;2023-04-24T07:47:15;9.25;;;3.40;;
68507;SDS011;55510;49.560;19.090;2023-04-24T07:50:16;8.33;;;3.40;;
68507;SDS011;55510;49.560;19.090;2023-04-24T07:53:21;4.50;;;2.80;;
68507;SDS011;55510;49.560;19.090;2023-04-24T07:56:22;7.38;;;3.15;;
68507;SDS011;55510;49.560;19.090;2023-04-24T07:59:23;7.37;;;4.20;;
68507;SDS011;55510;49.560;19.090;2023-04-24T08:02:24;8.13;;;3.65;;
68507;SDS011;55510;49.560;19.090;2023-04-24T08:05:27;6.55;;;3.33;;
68507;SDS011;55510;49.560;19.090;2023-04-24T08:08:28;6.30;;;3.30;;
68507;SDS011;55510;49.560;19.090;2023-04-24T08:11:29;6.93;;;3.60;;
68507;SDS011;55510;49.560;19.090;2023-04-24T08:14:30;7.47;;;3.40;;
68507;SDS011;55510;49.560;19.090;2023-04-24T08:17:30;6.27;;;3.47;;
68507;SDS011;55510;49.560;19.090;2023-04-24T08:20:31;7.77;;;4.03;;
68507;SDS011;55510;49.560;19.090;2023-04-24T08:23:32;10.27;;;4.20;;
68507;SDS011;55510;49.560;19.090;2023-04-24T08:26:32;9.13;;;4.87;;
68507;SDS011;55510;49.560;19.090;2023-04-24T08:29:33;8.23;;;4.35;;
68507;SDS011;55510;49.560;19.090;2023-04-24T08:32:34;8.17;;;4.30;;
68507;SDS011;55510;49.560;19.090;2023-04-24T08:35:34;8.80;;;3.60;;
68507;SDS011;55510;49.560;19.090;2023-04-24T08:38:36;7.87;;;3.90;;
68507;SDS011;55510;49.560;19.090;2023-04-24T08:41:36;9.68;;;4.07;;
68507;SDS011;55510;49.560;19.090;2023-04-24T08:44:38;8.87;;;4.13;;
68507;SDS011;55510;49.560;19.090;2023-04-24T08:47:39;9.30;;;4.43;;
68507;SDS011;55510;49.560;19.090;2023-04-24T08:50:41;8.98;;;3.97;;
68507;SDS011;55510;49.560;19.090;2023-04-24T08:53:43;9.40;;;3.95;;
68507;SDS011;55510;49.560;19.090;2023-04-24T08:56:44;12.47;;;6.17;;
68507;SDS011;55510;49.560;19.090;2023-04-24T08:59:47;8.70;;;4.40;;
68507;SDS011;55510;49.560;19.090;2023-04-24T09:02:49;11.88;;;4.95;;
68507;SDS011;55510;49.560;19.090;2023-04-24T09:05:50;15.15;;;5.30;;
68507;SDS011;55510;49.560;19.090;2023-04-24T09:08:53;15.32;;;6.00;;
68507;SDS011;55510;49.560;19.090;2023-04-24T09:11:55;8.97;;;3.87;;
68507;SDS011;55510;49.560;19.090;2023-04-24T09:14:57;7.97;;;4.07;;
68507;SDS011;55510;49.560;19.090;2023-04-24T09:17:58;10.57;;;4.38;;
68507;SDS011;55510;49.560;19.090;2023-04-24T09:21:01;9.38;;;3.80;;
68507;SDS011;55510;49.560;19.090;2023-04-24T09:24:08;8.52;;;3.97;;
68507;SDS011;55510;49.560;19.090;2023-04-24T09:27:18;6.80;;;3.33;;
68507;SDS011;55510;49.560;19.090;2023-04-24T09:30:21;8.10;;;4.03;;
68507;SDS011;55510;49.560;19.090;2023-04-24T09:33:23;5.43;;;3.35;;
68507;SDS011;55510;49.560;19.090;2023-04-24T09:36:33;7.53;;;3.23;;
68507;SDS011;55510;49.560;19.090;2023-04-24T09:39:34;6.30;;;3.20;;
68507;SDS011;55510;49.560;19.090;2023-04-24T09:42:35;5.63;;;3.50;;
68507;SDS011;55510;49.560;19.090;2023-04-24T09:45:36;11.77;;;5.43;;
68507;SDS011;55510;49.560;19.090;2023-04-24T09:48:38;5.75;;;3.67;;
68507;SDS011;55510;49.560;19.090;2023-04-24T09:51:39;9.68;;;3.70;;
68507;SDS011;55510;49.560;19.090;2023-04-24T09:54:40;6.88;;;3.40;;
68507;SDS011;55510;49.560;19.090;2023-04-24T09:57:48;7.53;;;3.53;;
68507;SDS011;55510;49.560;19.090;2023-04-24T10:00:50;5.78;;;3.63;;
68507;SDS011;55510;49.560;19.090;2023-04-24T10:03:54;10.73;;;4.43;;
68507;SDS011;55510;49.560;19.090;2023-04-24T10:06:55;9.33;;;4.60;;
68507;SDS011;55510;49.560;19.090;2023-04-24T10:09:57;10.15;;;4.35;;
68507;SDS011;55510;49.560;19.090;2023-04-24T10:13:00;8.30;;;4.47;;
68507;SDS011;55510;49.560;19.090;2023-04-24T10:16:01;7.53;;;4.35;;
68507;SDS011;55510;49.560;19.090;2023-04-24T10:19:03;7.07;;;4.10;;
68507;SDS011;55510;49.560;19.090;2023-04-24T10:22:04;6.93;;;3.90;;
68507;SDS011;55510;49.560;19.090;2023-04-24T10:25:06;7.05;;;4.10;;
68507;SDS011;55510;49.560;19.090;2023-04-24T10:28:09;7.85;;;4.13;;
68507;SDS011;55510;49.560;19.090;2023-04-24T10:31:10;8.80;;;4.25;;
68507;SDS011;55510;49.560;19.090;2023-04-24T10:34:12;7.50;;;4.10;;
68507;SDS011;55510;49.560;19.090;2023-04-24T10:37:14;8.63;;;4.60;;
68507;SDS011;55510;49.560;19.090;2023-04-24T10:40:17;8.02;;;4.40;;
68507;SDS011;55510;49.560;19.090;2023-04-24T10:43:19;7.75;;;4.20;;
68507;SDS011;55510;49.560;19.090;2023-04-24T10:46:20;16.75;;;7.00;;
68507;SDS011;55510;49.560;19.090;2023-04-24T10:49:30;30.60;;;11.93;;
68507;SDS011;55510;49.560;19.090;2023-04-24T10:52:53;28.30;;;12.60;;
68507;SDS011;55510;49.560;19.090;2023-04-24T10:59:07;17.67;;;8.98;;
68507;SDS011;55510;49.560;19.090;2023-04-24T11:02:09;7.73;;;4.57;;
68507;SDS011;55510;49.560;19.090;2023-04-24T11:05:10;7.77;;;3.90;;
68507;SDS011;55510;49.560;19.090;2023-04-24T11:08:12;6.93;;;4.00;;
68507;SDS011;55510;49.560;19.090;2023-04-24T11:11:15;9.73;;;4.00;;
68507;SDS011;55510;49.560;19.090;2023-04-24T11:14:17;8.57;;;4.30;;
68507;SDS011;55510;49.560;19.090;2023-04-24T11:17:37;5.80;;;3.63;;
68507;SDS011;55510;49.560;19.090;2023-04-24T11:20:43;10.10;;;4.10;;
68507;SDS011;55510;49.560;19.090;2023-04-24T11:23:45;7.47;;;3.27;;
68507;SDS011;55510;49.560;19.090;2023-04-24T11:26:46;5.68;;;3.00;;
68507;SDS011;55510;49.560;19.090;2023-04-24T11:32:49;7.33;;;3.70;;
68507;SDS011;55510;49.560;19.090;2023-04-24T11:35:51;9.43;;;4.63;;
68507;SDS011;55510;49.560;19.090;2023-04-24T11:38:52;7.20;;;3.50;;
68507;SDS011;55510;49.560;19.090;2023-04-24T11:41:53;5.10;;;2.40;;
68507;SDS011;55510;49.560;19.090;2023-04-24T11:45:02;6.57;;;2.78;;
68507;SDS011;55510;49.560;19.090;2023-04-24T11:48:11;4.60;;;2.83;;
68507;SDS011;55510;49.560;19.090;2023-04-24T11:51:12;6.63;;;3.13;;
68507;SDS011;55510;49.560;19.090;2023-04-24T11:54:13;6.57;;;3.50;;
68507;SDS011;55510;49.560;19.090;2023-04-24T11:57:14;9.90;;;5.40;;
68507;SDS011;55510;49.560;19.090;2023-04-24T12:03:17;6.40;;;3.83;;
68507;SDS011;55510;49.560;19.090;2023-04-24T12:06:17;6.10;;;3.83;;
68507;SDS011;55510;49.560;19.090;2023-04-24T12:09:19;9.13;;;4.35;;
68507;SDS011;55510;49.560;19.090;2023-04-24T12:12:20;7.35;;;3.80;;
68507;SDS011;55510;49.560;19.090;2023-04-24T12:15:20;9.53;;;4.90;;
68507;SDS011;55510;49.560;19.090;2023-04-24T12:18:22;9.57;;;5.13;;
68507;SDS011;55510;49.560;19.090;2023-04-24T12:21:24;12.48;;;6.07;;
68507;SDS011;55510;49.560;19.090;2023-04-24T12:24:28;32.25;;;14.30;;
68507;SDS011;55510;49.560;19.090;2023-04-24T12:27:31;47.63;;;20.17;;
68507;SDS011;55510;49.560;19.090;2023-04-24T12:30:34;25.55;;;12.75;;
68507;SDS011;55510;49.560;19.090;2023-04-24T12:33:36;69.15;;;30.35;;
68507;SDS011;55510;49.560;19.090;2023-04-24T12:36:37;49.15;;;22.50;;
68507;SDS011;55510;49.560;19.090;2023-04-24T12:39:37;44.20;;;20.00;;
68507;SDS011;55510;49.560;19.090;2023-04-24T12:42:42;36.67;;;18.40;;
68507;SDS011;55510;49.560;19.090;2023-04-24T12:45:45;26.33;;;11.32;;
68507;SDS011;55510;49.560;19.090;2023-04-24T12:48:48;18.53;;;10.47;;
68507;SDS011;55510;49.560;19.090;2023-04-24T12:51:49;14.70;;;8.23;;
68507;SDS011;55510;49.560;19.090;2023-04-24T12:54:50;26.92;;;19.45;;
68507;SDS011;55510;49.560;19.090;2023-04-24T12:57:51;23.73;;;16.80;;
68507;SDS011;55510;49.560;19.090;2023-04-24T13:00:53;19.13;;;14.23;;
68507;SDS011;55510;49.560;19.090;2023-04-24T13:03:54;20.40;;;13.00;;
68507;SDS011;55510;49.560;19.090;2023-04-24T13:06:55;28.23;;;20.02;;
68507;SDS011;55510;49.560;19.090;2023-04-24T13:09:55;16.47;;;9.93;;
68507;SDS011;55510;49.560;19.090;2023-04-24T13:12:59;15.40;;;7.00;;
68507;SDS011;55510;49.560;19.090;2023-04-24T13:15:59;11.57;;;6.43;;
68507;SDS011;55510;49.560;19.090;2023-04-24T13:19:00;14.50;;;8.63;;
68507;SDS011;55510;49.560;19.090;2023-04-24T13:22:01;18.27;;;11.23;;
68507;SDS011;55510;49.560;19.090;2023-04-24T13:25:02;19.60;;;10.75;;
68507;SDS011;55510;49.560;19.090;2023-04-24T13:28:03;16.20;;;8.38;;
68507;SDS011;55510;49.560;19.090;2023-04-24T13:31:04;15.13;;;8.67;;
68507;SDS011;55510;49.560;19.090;2023-04-24T13:34:05;15.48;;;8.93;;
68507;SDS011;55510;49.560;19.090;2023-04-24T13:37:06;13.55;;;7.07;;
68507;SDS011;55510;49.560;19.090;2023-04-24T13:40:08;10.97;;;7.30;;
68507;SDS011;55510;49.560;19.090;2023-04-24T13:43:09;14.27;;;8.20;;
68507;SDS011;55510;49.560;19.090;2023-04-24T13:46:10;11.20;;;6.30;;
68507;SDS011;55510;49.560;19.090;2023-04-24T13:49:11;10.93;;;6.67;;
68507;SDS011;55510;49.560;19.090;2023-04-24T13:52:13;11.10;;;6.50;;
68507;SDS011;55510;49.560;19.090;2023-04-24T13:55:14;8.43;;;5.32;;
68507;SDS011;55510;49.560;19.090;2023-04-24T13:58:15;10.40;;;6.07;;
68507;SDS011;55510;49.560;19.090;2023-04-24T14:01:15;10.50;;;6.05;;
68507;SDS011;55510;49.560;19.090;2023-04-24T14:04:16;10.52;;;5.95;;
68507;SDS011;55510;49.560;19.090;2023-04-24T14:07:17;8.47;;;5.40;;
68507;SDS011;55510;49.560;19.090;2023-04-24T14:10:18;9.60;;;5.93;;
68507;SDS011;55510;49.560;19.090;2023-04-24T14:13:18;11.77;;;7.50;;
68507;SDS011;55510;49.560;19.090;2023-04-24T14:16:20;19.23;;;9.80;;
68507;SDS011;55510;49.560;19.090;2023-04-24T14:19:21;22.53;;;12.63;;
68507;SDS011;55510;49.560;19.090;2023-04-24T14:22:22;41.05;;;22.88;;
68507;SDS011;55510;49.560;19.090;2023-04-24T14:25:23;24.85;;;14.50;;
68507;SDS011;55510;49.560;19.090;2023-04-24T14:28:23;16.70;;;10.70;;
68507;SDS011;55510;49.560;19.090;2023-04-24T14:31:25;15.68;;;9.63;;
68507;SDS011;55510;49.560;19.090;2023-04-24T14:34:25;17.03;;;11.20;;
68507;SDS011;55510;49.560;19.090;2023-04-24T14:37:26;28.08;;;18.55;;
68507;SDS011;55510;49.560;19.090;2023-04-24T14:40:30;57.00;;;28.07;;
68507;SDS011;55510;49.560;19.090;2023-04-24T14:43:31;49.67;;;23.92;;
68507;SDS011;55510;49.560;19.090;2023-04-24T14:46:32;57.90;;;25.05;;
68507;SDS011;55510;49.560;19.090;2023-04-24T14:49:33;52.80;;;23.23;;
68507;SDS011;55510;49.560;19.090;2023-04-24T14:52:34;49.40;;;21.60;;
68507;SDS011;55510;49.560;19.090;2023-04-24T14:55:36;37.88;;;19.20;;
68507;SDS011;55510;49.560;19.090;2023-04-24T14:58:37;35.33;;;20.13;;
68507;SDS011;55510;49.560;19.090;2023-04-24T15:01:37;32.83;;;19.47;;
68507;SDS011;55510;49.560;19.090;2023-04-24T15:04:38;29.60;;;16.23;;
68507;SDS011;55510;49.560;19.090;2023-04-24T15:07:39;30.93;;;17.10;;
68507;SDS011;55510;49.560;19.090;2023-04-24T15:10:41;31.73;;;19.10;;
68507;SDS011;55510;49.560;19.090;2023-04-24T15:13:42;52.00;;;28.35;;
68507;SDS011;55510;49.560;19.090;2023-04-24T15:16:46;57.20;;;33.07;;
68507;SDS011;55510;49.560;19.090;2023-04-24T15:19:47;78.07;;;41.13;;
68507;SDS011;55510;49.560;19.090;2023-04-24T15:22:47;66.23;;;35.80;;
68507;SDS011;55510;49.560;19.090;2023-04-24T15:25:48;67.05;;;35.00;;
68507;SDS011;55510;49.560;19.090;2023-04-24T15:28:49;61.20;;;30.43;;
68507;SDS011;55510;49.560;19.090;2023-04-24T15:31:49;48.20;;;26.27;;
68507;SDS011;55510;49.560;19.090;2023-04-24T15:34:50;46.10;;;23.37;;
68507;SDS011;55510;49.560;19.090;2023-04-24T15:37:51;54.72;;;26.23;;
68507;SDS011;55510;49.560;19.090;2023-04-24T15:40:52;60.33;;;32.58;;
68507;SDS011;55510;49.560;19.090;2023-04-24T15:43:52;72.77;;;39.20;;
68507;SDS011;55510;49.560;19.090;2023-04-24T15:46:53;64.95;;;32.08;;
68507;SDS011;55510;49.560;19.090;2023-04-24T15:49:55;71.40;;;38.00;;
68507;SDS011;55510;49.560;19.090;2023-04-24T15:52:57;66.20;;;35.10;;
68507;SDS011;55510;49.560;19.090;2023-04-24T15:55:58;82.10;;;41.40;;
68507;SDS011;55510;49.560;19.090;2023-04-24T15:58:59;71.60;;;36.37;;
68507;SDS011;55510;49.560;19.090;2023-04-24T16:02:00;74.80;;;39.65;;
68507;SDS011;55510;49.560;19.090;2023-04-24T16:05:01;80.07;;;40.22;;
68507;SDS011;55510;49.560;19.090;2023-04-24T16:08:02;86.63;;;44.27;;
68507;SDS011;55510;49.560;19.090;2023-04-24T16:11:03;86.88;;;47.78;;
68507;SDS011;55510;49.560;19.090;2023-04-24T16:14:04;89.27;;;47.90;;
68507;SDS011;55510;49.560;19.090;2023-04-24T16:17:05;81.65;;;44.28;;
68507;SDS011;55510;49.560;19.090;2023-04-24T16:20:06;78.85;;;41.00;;
68507;SDS011;55510;49.560;19.090;2023-04-24T16:23:07;73.22;;;39.17;;
68507;SDS011;55510;49.560;19.090;2023-04-24T16:26:08;73.70;;;38.43;;
68507;SDS011;55510;49.560;19.090;2023-04-24T16:29:08;68.82;;;35.83;;
68507;SDS011;55510;49.560;19.090;2023-04-24T16:32:09;71.60;;;37.37;;
68507;SDS011;55510;49.560;19.090;2023-04-24T16:35:10;75.20;;;37.83;;
68507;SDS011;55510;49.560;19.090;2023-04-24T16:38:11;87.97;;;41.37;;
68507;SDS011;55510;49.560;19.090;2023-04-24T16:41:11;82.47;;;40.88;;
68507;SDS011;55510;49.560;19.090;2023-04-24T16:44:12;93.20;;;45.43;;
68507;SDS011;55510;49.560;19.090;2023-04-24T16:47:13;84.30;;;41.90;;
68507;SDS011;55510;49.560;19.090;2023-04-24T16:50:15;87.65;;;42.63;;
68507;SDS011;55510;49.560;19.090;2023-04-24T16:53:16;82.37;;;44.23;;
68507;SDS011;55510;49.560;19.090;2023-04-24T16:56:17;76.70;;;37.80;;
68507;SDS011;55510;49.560;19.090;2023-04-24T16:59:17;79.07;;;36.23;;
68507;SDS011;55510;49.560;19.090;2023-04-24T17:02:18;77.57;;;36.05;;
68507;SDS011;55510;49.560;19.090;2023-04-24T17:05:19;79.50;;;41.53;;
68507;SDS011;55510;49.560;19.090;2023-04-24T17:08:22;68.93;;;34.15;;
68507;SDS011;55510;49.560;19.090;2023-04-24T17:11:23;67.00;;;32.30;;
68507;SDS011;55510;49.560;19.090;2023-04-24T17:14:24;69.70;;;35.10;;
68507;SDS011;55510;49.560;19.090;2023-04-24T17:17:25;72.38;;;33.88;;
68507;SDS011;55510;49.560;19.090;2023-04-24T17:20:26;62.35;;;31.73;;
68507;SDS011;55510;49.560;19.090;2023-04-24T17:23:30;59.47;;;29.10;;
68507;SDS011;55510;49.560;19.090;2023-04-24T17:26:31;50.03;;;23.48;;
68507;SDS011;55510;49.560;19.090;2023-04-24T17:29:31;36.35;;;18.30;;
68507;SDS011;55510;49.560;19.090;2023-04-24T17:32:32;26.27;;;14.63;;
68507;SDS011;55510;49.560;19.090;2023-04-24T17:35:33;26.17;;;13.68;;
68507;SDS011;55510;49.560;19.090;2023-04-24T17:38:34;23.63;;;12.13;;
68507;SDS011;55510;49.560;19.090;2023-04-24T17:41:34;18.73;;;10.60;;
68507;SDS011;55510;49.560;19.090;2023-04-24T17:44:35;13.13;;;7.93;;
68507;SDS011;55510;49.560;19.090;2023-04-24T17:47:37;9.60;;;5.43;;
68507;SDS011;55510;49.560;19.090;2023-04-24T17:50:38;11.80;;;6.25;;
68507;SDS011;55510;49.560;19.090;2023-04-24T17:53:39;9.37;;;5.27;;